In Rescue
 
Open Full Screen Window  High Contrast Mode
October 07, 2022 11:15 AM PDT
Present Weather: Haze
Weather Information
Wind Direction
  ---
Wind Speed
  00 kt (0 mph)
Wind Gust
  00 kt (0 mph)
Altimeter
30.05 in
Visibility
4 SM
Temperature
28° C
82° F
Dewpoint
11° C
52° F
Humidity
35%
1hr Rain Fall
00.00 in.
24hr Rain Fall
00.00 in.
Sky Condition
Clear
MVFR

METAR KSBD 071815Z AUTO 00000KT 4SM HZ CLR 28/11 A3005 RMK AO2 T02770114

FAA Disclaimer: The data displayed is for advisory purposes only and is not to be used for flight planning or operations.